createdAt,value
2022-08-20T00:01:38.947Z,101418.53
2022-08-20T00:04:06.091Z,101420.03
2022-08-20T00:06:37.400Z,101425.13
2022-08-20T00:09:05.000Z,101421.97
2022-08-20T00:11:33.682Z,101423.22
2022-08-20T00:14:05.747Z,101411.47
2022-08-20T00:16:37.900Z,101406.88
2022-08-20T00:19:09.501Z,101411.00
2022-08-20T00:21:49.130Z,101410.78
2022-08-20T00:24:20.219Z,101415.16
2022-08-20T00:26:52.678Z,101423.28
2022-08-20T00:29:24.430Z,101414.06
2022-08-20T00:31:57.109Z,101420.03
2022-08-20T00:34:24.247Z,101406.38
2022-08-20T00:36:51.232Z,101406.56
2022-08-20T00:39:18.158Z,101412.53
2022-08-20T00:41:45.884Z,101407.00
2022-08-20T00:44:16.079Z,101412.25
2022-08-20T00:46:50.374Z,101423.56
2022-08-20T00:49:27.953Z,101419.09
2022-08-20T00:52:06.768Z,101425.44
2022-08-20T00:54:52.282Z,101423.38
2022-08-20T00:58:00.743Z,101430.56
2022-08-20T01:00:43.540Z,101430.34
2022-08-20T01:03:17.397Z,101430.78
2022-08-20T01:05:48.510Z,101434.47
2022-08-20T01:08:18.916Z,101429.13
2022-08-20T01:10:49.923Z,101435.28
2022-08-20T01:13:23.660Z,101434.25
2022-08-20T01:15:54.589Z,101439.00
2022-08-20T01:18:28.713Z,101431.81
2022-08-20T01:21:03.208Z,101435.28
2022-08-20T01:24:00.812Z,101432.78
2022-08-20T01:26:35.379Z,101431.19
2022-08-20T01:29:11.562Z,101431.19
2022-08-20T01:31:41.571Z,101436.91
2022-08-20T01:34:14.056Z,101435.69
2022-08-20T01:36:53.438Z,101431.50
2022-08-20T01:39:35.224Z,101441.81
2022-08-20T01:42:25.959Z,101427.88
2022-08-20T01:44:53.031Z,101440.19
2022-08-20T01:47:31.417Z,101439.97
2022-08-20T01:50:20.537Z,101440.78
2022-08-20T01:52:59.681Z,101441.84
2022-08-20T01:55:27.824Z,101448.56
2022-08-20T01:57:55.363Z,101452.69
2022-08-20T02:00:23.866Z,101444.28
2022-08-20T02:02:51.926Z,101438.97
2022-08-20T02:05:20.150Z,101432.63
2022-08-20T02:07:47.270Z,101436.91
2022-08-20T02:10:17.502Z,101442.88
2022-08-20T02:12:44.683Z,101439.78
2022-08-20T02:15:12.689Z,101443.25
2022-08-20T02:17:41.866Z,101440.19
2022-08-20T02:20:20.035Z,101438.16
2022-08-20T02:22:57.398Z,101444.63
2022-08-20T02:25:28.377Z,101450.25
2022-08-20T02:27:57.626Z,101449.50
2022-08-20T02:30:35.923Z,101457.63
2022-08-20T02:33:07.060Z,101451.44
2022-08-20T02:35:35.342Z,101455.31
2022-08-20T02:38:02.870Z,101454.38
2022-08-20T02:40:31.476Z,101458.06
2022-08-20T02:43:02.477Z,101451.00
2022-08-20T02:45:34.718Z,101446.53
2022-08-20T02:48:01.632Z,101459.91
2022-08-20T02:50:28.610Z,101463.75
2022-08-20T02:52:55.632Z,101448.63
2022-08-20T02:55:28.037Z,101446.56
2022-08-20T02:58:00.375Z,101444.44
2022-08-20T03:00:37.831Z,101450.78
2022-08-20T03:03:10.405Z,101445.31
2022-08-20T03:05:39.948Z,101442.03
2022-08-20T03:08:10.966Z,101443.47
2022-08-20T03:10:40.001Z,101440.59
2022-08-20T03:13:12.562Z,101445.44
2022-08-20T03:15:52.497Z,101447.97
2022-08-20T03:18:25.173Z,101432.91
2022-08-20T03:20:52.528Z,101445.78
2022-08-20T03:23:21.398Z,101447.66
2022-08-20T03:25:48.666Z,101451.66
2022-08-20T03:28:17.248Z,101445.47
2022-08-20T03:30:44.680Z,101446.34
2022-08-20T03:33:11.827Z,101448.31
2022-08-20T03:35:39.312Z,101456.72
2022-08-20T03:38:12.237Z,101455.88
2022-08-20T03:40:41.259Z,101460.16
2022-08-20T03:43:09.416Z,101463.03
2022-08-20T03:45:39.924Z,101466.47
2022-08-20T03:48:10.418Z,101471.75
2022-08-20T03:50:37.818Z,101471.63
2022-08-20T03:53:04.933Z,101474.56
2022-08-20T03:55:32.766Z,101474.78
2022-08-20T03:58:03.312Z,101467.41
2022-08-20T04:00:45.322Z,101480.31
2022-08-20T04:03:12.373Z,101474.94
2022-08-20T04:05:41.051Z,101481.41
2022-08-20T04:08:12.850Z,101490.44
2022-08-20T04:10:39.990Z,101487.50
2022-08-20T04:13:08.088Z,101496.66
2022-08-20T04:15:37.060Z,101493.47
2022-08-20T04:18:09.012Z,101496.56
2022-08-20T04:20:40.263Z,101506.13
2022-08-20T04:23:08.659Z,101491.69
2022-08-20T04:25:43.181Z,101483.47
2022-08-20T04:28:28.613Z,101495.19
2022-08-20T04:30:58.897Z,101502.00
2022-08-20T04:33:33.969Z,101503.78
2022-08-20T04:36:06.083Z,101504.19
2022-08-20T04:38:48.143Z,101504.06
2022-08-20T04:41:22.524Z,101504.25
2022-08-20T04:43:51.240Z,101505.72
2022-08-20T04:46:18.428Z,101512.25
2022-08-20T04:48:49.078Z,101523.81
2022-08-20T04:51:18.332Z,101522.19
2022-08-20T04:53:53.136Z,101527.25
2022-08-20T04:56:29.239Z,101535.88
2022-08-20T04:59:00.601Z,101533.84
2022-08-20T05:01:29.014Z,101534.06
2022-08-20T05:03:58.026Z,101533.47
2022-08-20T05:06:30.560Z,101525.34
2022-08-20T05:09:00.456Z,101522.38
2022-08-20T05:11:34.024Z,101530.19
2022-08-20T05:14:06.187Z,101530.97
2022-08-20T05:16:38.129Z,101534.91
2022-08-20T05:19:08.804Z,101544.47
2022-08-20T05:21:36.213Z,101546.19
2022-08-20T05:24:03.439Z,101535.16
2022-08-20T05:26:30.341Z,101542.19
2022-08-20T05:28:59.060Z,101553.56
2022-08-20T05:31:31.924Z,101551.03
2022-08-20T05:34:12.556Z,101550.84
2022-08-20T05:36:49.854Z,101552.09
2022-08-20T05:39:19.206Z,101556.72
2022-08-20T05:41:47.763Z,101561.75
2022-08-20T05:44:15.026Z,101549.63
2022-08-20T05:46:44.878Z,101554.94
2022-08-20T05:49:16.356Z,101557.09
2022-08-20T05:51:43.776Z,101553.03
2022-08-20T05:54:13.604Z,101548.00
2022-08-20T05:56:40.973Z,101561.69
2022-08-20T05:59:10.315Z,101560.66
2022-08-20T06:01:39.718Z,101558.78
2022-08-20T06:04:28.132Z,101572.25
2022-08-20T06:07:03.039Z,101573.75
2022-08-20T06:09:32.163Z,101560.53
2022-08-20T06:12:09.469Z,101563.81
2022-08-20T06:14:38.313Z,101564.22
2022-08-20T06:17:09.090Z,101568.91
2022-08-20T06:19:38.722Z,101574.81
2022-08-20T06:22:17.865Z,101569.00
2022-08-20T06:24:50.206Z,101584.28
2022-08-20T06:27:17.751Z,101584.31
2022-08-20T06:29:44.901Z,101583.97
2022-08-20T06:32:12.091Z,101583.53
2022-08-20T06:34:50.513Z,101574.34
2022-08-20T06:37:31.460Z,101574.38
2022-08-20T06:40:13.540Z,101583.53
2022-08-20T06:42:48.533Z,101587.25
2022-08-20T06:45:20.778Z,101581.75
2022-08-20T06:47:48.366Z,101583.88
2022-08-20T06:50:23.881Z,101588.03
2022-08-20T06:52:52.638Z,101588.66
2022-08-20T06:55:21.594Z,101581.81
2022-08-20T06:58:32.693Z,101575.16
2022-08-20T07:01:04.918Z,101584.16
2022-08-20T07:03:38.088Z,101579.16
2022-08-20T07:06:06.038Z,101570.84
2022-08-20T07:08:33.988Z,101573.97
2022-08-20T07:11:01.957Z,101577.53
2022-08-20T07:13:29.150Z,101564.50
2022-08-20T07:15:56.704Z,101574.59
2022-08-20T07:18:28.888Z,101563.16
2022-08-20T07:21:00.023Z,101576.03
2022-08-20T07:23:27.580Z,101571.72
2022-08-20T07:26:00.712Z,101570.06
2022-08-20T07:28:32.672Z,101572.13
2022-08-20T07:31:20.413Z,101574.66
2022-08-20T07:33:50.291Z,101577.59
2022-08-20T07:36:18.432Z,101581.66
2022-08-20T07:38:47.507Z,101578.47
2022-08-20T07:41:14.845Z,101599.78
2022-08-20T07:43:45.761Z,101595.94
2022-08-20T07:46:20.793Z,101603.94
2022-08-20T07:48:50.483Z,101609.72
2022-08-20T07:51:22.455Z,101605.41
2022-08-20T07:53:51.665Z,101604.22
2022-08-20T07:56:24.254Z,101599.75
2022-08-20T07:58:55.371Z,101602.94
2022-08-20T08:01:30.654Z,101597.88
2022-08-20T08:03:59.899Z,101596.22
2022-08-20T08:06:31.118Z,101604.00
2022-08-20T08:09:10.611Z,101606.41
2022-08-20T08:11:44.972Z,101604.13
2022-08-20T08:14:15.058Z,101614.22
2022-08-20T08:16:45.667Z,101603.41
2022-08-20T08:19:15.481Z,101610.84
2022-08-20T08:21:43.622Z,101618.25
2022-08-20T08:24:12.162Z,101611.34
2022-08-20T08:26:41.459Z,101606.41
2022-08-20T08:29:08.441Z,101610.84
2022-08-20T08:31:35.744Z,101610.03
2022-08-20T08:34:02.694Z,101612.88
2022-08-20T08:36:29.733Z,101616.47
2022-08-20T08:38:56.848Z,101620.78
2022-08-20T08:41:51.347Z,101615.97
2022-08-20T08:44:27.240Z,101621.19
2022-08-20T08:47:18.324Z,101625.81
2022-08-20T08:49:47.575Z,101633.50
2022-08-20T08:52:24.768Z,101631.00
2022-08-20T08:55:02.217Z,101634.75
2022-08-20T08:57:29.456Z,101633.63
2022-08-20T09:00:10.515Z,101631.09
2022-08-20T09:02:38.995Z,101636.56
2022-08-20T09:05:17.034Z,101632.84
2022-08-20T09:07:48.951Z,101627.88
2022-08-20T09:10:17.574Z,101642.06
2022-08-20T09:12:50.801Z,101641.03
2022-08-20T09:15:21.166Z,101645.16
2022-08-20T09:17:48.280Z,101643.19
2022-08-20T09:20:15.249Z,101632.56
2022-08-20T09:22:42.290Z,101638.66
2022-08-20T09:25:09.614Z,101647.69
2022-08-20T09:27:36.723Z,101633.50
2022-08-20T09:30:07.045Z,101642.50
2022-08-20T09:32:34.587Z,101638.56
2022-08-20T09:35:04.813Z,101639.63
2022-08-20T09:37:37.462Z,101641.66
2022-08-20T09:40:07.640Z,101634.13
2022-08-20T09:42:41.232Z,101631.78
2022-08-20T09:45:11.465Z,101630.56
2022-08-20T09:47:54.792Z,101643.56
2022-08-20T09:50:30.840Z,101637.00
2022-08-20T09:53:00.079Z,101636.16
2022-08-20T09:55:46.072Z,101631.97
2022-08-20T09:58:31.414Z,101640.84
2022-08-20T10:01:14.155Z,101638.81
2022-08-20T10:03:48.254Z,101635.50
2022-08-20T10:06:19.586Z,101649.72
2022-08-20T10:08:47.613Z,101647.06
2022-08-20T10:11:14.587Z,101646.03
2022-08-20T10:13:41.667Z,101638.44
2022-08-20T10:16:08.677Z,101635.94
2022-08-20T10:18:37.037Z,101641.81
2022-08-20T10:21:10.161Z,101639.06
2022-08-20T10:23:37.077Z,101640.13
2022-08-20T10:26:04.387Z,101637.00
2022-08-20T10:28:31.319Z,101638.72
2022-08-20T10:30:58.227Z,101628.75
2022-08-20T10:33:28.275Z,101630.69
2022-08-20T10:35:59.734Z,101630.63
2022-08-20T10:38:26.961Z,101645.09
2022-08-20T10:40:53.869Z,101641.84
2022-08-20T10:43:20.796Z,101645.56
2022-08-20T10:45:47.785Z,101640.72
2022-08-20T10:48:19.455Z,101639.97
2022-08-20T10:50:49.153Z,101630.38
2022-08-20T10:53:16.673Z,101637.53
2022-08-20T10:55:44.488Z,101644.03
2022-08-20T10:58:13.128Z,101630.28
2022-08-20T11:00:41.606Z,101636.53
2022-08-20T11:03:08.593Z,101630.81
2022-08-20T11:05:35.904Z,101638.25
2022-08-20T11:08:05.075Z,101634.06
2022-08-20T11:10:35.041Z,101639.13
2022-08-20T11:13:04.615Z,101643.78
2022-08-20T11:15:33.454Z,101640.84
2022-08-20T11:18:00.392Z,101637.41
2022-08-20T11:20:27.356Z,101631.72
2022-08-20T11:22:54.781Z,101630.28
2022-08-20T11:25:21.865Z,101626.66
2022-08-20T11:27:51.381Z,101628.94
2022-08-20T11:30:29.303Z,101637.38
2022-08-20T11:32:58.391Z,101631.97
2022-08-20T11:35:48.899Z,101636.59
2022-08-20T11:38:13.264Z,101625.34
2022-08-20T11:40:40.284Z,101629.75
2022-08-20T11:43:15.872Z,101630.47
2022-08-20T11:45:50.774Z,101622.50
2022-08-20T11:48:18.379Z,101623.28
2022-08-20T11:50:46.722Z,101626.47
2022-08-20T11:53:14.823Z,101621.94
2022-08-20T11:55:42.702Z,101625.09
2022-08-20T11:58:10.882Z,101629.88
2022-08-20T12:00:37.837Z,101628.88
2022-08-20T12:03:08.755Z,101624.38
2022-08-20T12:05:38.259Z,101636.13
2022-08-20T12:08:06.067Z,101626.91
2022-08-20T12:10:33.113Z,101631.31
2022-08-20T12:13:00.290Z,101612.31
2022-08-20T12:15:29.884Z,101620.44
2022-08-20T12:17:56.887Z,101616.75
2022-08-20T12:20:24.527Z,101618.84
2022-08-20T12:22:52.645Z,101620.94
2022-08-20T12:25:20.261Z,101623.53
2022-08-20T12:27:47.385Z,101618.13
2022-08-20T12:30:19.943Z,101618.41
2022-08-20T12:32:47.424Z,101617.44
2022-08-20T12:35:16.775Z,101626.88
2022-08-20T12:37:45.653Z,101623.59
2022-08-20T12:40:31.983Z,101612.47
2022-08-20T12:43:02.418Z,101630.16
2022-08-20T12:45:30.741Z,101626.19
2022-08-20T12:48:06.253Z,101624.56
2022-08-20T12:50:34.764Z,101631.31
2022-08-20T12:53:03.202Z,101631.16
2022-08-20T12:55:31.019Z,101637.34
2022-08-20T12:58:01.918Z,101639.81
2022-08-20T13:00:34.286Z,101633.50
2022-08-20T13:03:04.782Z,101632.28
2022-08-20T13:05:33.110Z,101634.16
2022-08-20T13:08:00.471Z,101630.75
2022-08-20T13:10:33.340Z,101626.94
2022-08-20T13:13:03.973Z,101634.78
2022-08-20T13:15:32.906Z,101625.09
2022-08-20T13:18:02.306Z,101631.53
2022-08-20T13:20:34.161Z,101623.81
2022-08-20T13:23:03.386Z,101618.34
2022-08-20T13:25:30.957Z,101619.28
2022-08-20T13:28:00.214Z,101613.28
2022-08-20T13:30:27.919Z,101622.34
2022-08-20T13:32:55.136Z,101610.94
2022-08-20T13:35:22.431Z,101614.72
2022-08-20T13:37:50.494Z,101615.56
2022-08-20T13:40:18.604Z,101612.53
2022-08-20T13:42:45.860Z,101618.91
2022-08-20T13:45:12.847Z,101621.16
2022-08-20T13:47:44.794Z,101614.78
2022-08-20T13:50:21.981Z,101620.31
2022-08-20T13:52:49.172Z,101624.91
2022-08-20T13:55:19.523Z,101607.47
2022-08-20T13:57:47.913Z,101610.84
2022-08-20T14:00:28.106Z,101616.44
2022-08-20T14:03:02.724Z,101608.63
2022-08-20T14:05:31.537Z,101609.16
2022-08-20T14:08:12.195Z,101613.38
2022-08-20T14:10:39.874Z,101607.91
2022-08-20T14:13:15.114Z,101590.88
2022-08-20T14:15:43.568Z,101601.03
2022-08-20T14:18:10.635Z,101591.00
2022-08-20T14:20:38.787Z,101596.13
2022-08-20T14:23:06.608Z,101599.06
2022-08-20T14:25:33.786Z,101585.53
2022-08-20T14:28:18.173Z,101582.00
2022-08-20T14:30:52.652Z,101584.88
2022-08-20T14:33:21.887Z,101591.28
2022-08-20T14:35:48.862Z,101593.88
2022-08-20T14:38:15.797Z,101593.75
2022-08-20T14:40:42.727Z,101586.06
2022-08-20T14:43:09.644Z,101595.91
2022-08-20T14:45:36.569Z,101590.44
2022-08-20T14:48:07.714Z,101586.34
2022-08-20T14:50:35.898Z,101581.50
2022-08-20T14:53:04.262Z,101588.50
2022-08-20T14:55:37.347Z,101590.44
2022-08-20T14:58:12.606Z,101586.72
2022-08-20T15:00:40.352Z,101586.78
2022-08-20T15:03:07.412Z,101583.88
2022-08-20T15:05:39.652Z,101578.59
2022-08-20T15:08:08.033Z,101575.22
2022-08-20T15:10:37.286Z,101573.91
2022-08-20T15:13:04.360Z,101570.88
2022-08-20T15:15:31.330Z,101562.94
2022-08-20T15:18:03.481Z,101558.28
2022-08-20T15:20:33.264Z,101570.84
2022-08-20T15:23:01.203Z,101568.78
2022-08-20T15:25:36.429Z,101567.59
2022-08-20T15:28:08.685Z,101564.38
2022-08-20T15:30:38.816Z,101560.38
2022-08-20T15:33:05.932Z,101563.25
2022-08-20T15:35:32.917Z,101565.25
2022-08-20T15:38:00.381Z,101561.25
2022-08-20T15:40:31.727Z,101556.81
2022-08-20T15:43:01.403Z,101566.53
2022-08-20T15:45:28.912Z,101559.69
2022-08-20T15:48:23.035Z,101555.22
2022-08-20T15:51:32.301Z,101554.81
2022-08-20T15:54:05.076Z,101567.28
2022-08-20T15:57:03.908Z,101552.69
2022-08-20T16:00:14.296Z,101561.44
2022-08-20T16:03:30.264Z,101556.66
2022-08-20T16:06:22.057Z,101557.59
2022-08-20T16:09:10.971Z,101552.94
2022-08-20T16:12:10.410Z,101550.59
2022-08-20T16:14:45.200Z,101555.97
2022-08-20T16:17:18.035Z,101552.38
2022-08-20T16:20:02.206Z,101559.72
2022-08-20T16:22:31.659Z,101553.09
2022-08-20T16:24:58.743Z,101549.69
2022-08-20T16:27:54.379Z,101547.28
2022-08-20T16:30:40.106Z,101535.53
2022-08-20T16:33:17.921Z,101542.38
2022-08-20T16:35:57.929Z,101543.72
2022-08-20T16:38:50.210Z,101548.00
2022-08-20T16:41:24.039Z,101545.56
2022-08-20T16:44:33.948Z,101543.38
2022-08-20T16:47:39.885Z,101552.97
2022-08-20T16:50:16.212Z,101543.94
2022-08-20T16:52:46.246Z,101548.19
2022-08-20T16:55:14.489Z,101551.38
2022-08-20T16:57:41.975Z,101544.75
2022-08-20T17:00:15.640Z,101543.28
2022-08-20T17:03:02.326Z,101541.22
2022-08-20T17:05:37.903Z,101541.81
2022-08-20T17:08:08.033Z,101545.97
2022-08-20T17:10:55.436Z,101542.50
2022-08-20T17:13:37.023Z,101541.31
2022-08-20T17:16:16.939Z,101548.94
2022-08-20T17:18:52.866Z,101550.31
2022-08-20T17:21:28.025Z,101548.22
2022-08-20T17:24:16.782Z,101544.56
2022-08-20T17:26:56.777Z,101553.81
2022-08-20T17:29:32.160Z,101543.78
2022-08-20T17:32:09.950Z,101546.84
2022-08-20T17:34:53.688Z,101548.41
2022-08-20T17:37:32.747Z,101551.25
2022-08-20T17:40:34.618Z,101549.09
2022-08-20T17:43:09.394Z,101543.94
2022-08-20T17:45:45.389Z,101545.94
2022-08-20T17:48:29.267Z,101540.50
2022-08-20T17:50:56.883Z,101547.84
2022-08-20T17:53:29.828Z,101548.31
2022-08-20T17:56:02.133Z,101546.88
2022-08-20T17:59:24.001Z,101561.19
2022-08-20T18:02:03.772Z,101558.38
2022-08-20T18:04:32.206Z,101550.72
2022-08-20T18:07:08.821Z,101552.25
2022-08-20T18:10:10.454Z,101548.69
2022-08-20T18:13:01.610Z,101546.13
2022-08-20T18:15:34.436Z,101550.97
2022-08-20T18:18:14.741Z,101540.41
2022-08-20T18:21:33.445Z,101549.91
2022-08-20T18:24:12.368Z,101557.63
2022-08-20T18:26:49.762Z,101551.25
2022-08-20T18:29:27.503Z,101546.34
2022-08-20T18:32:02.192Z,101549.25
2022-08-20T18:34:29.693Z,101554.94
2022-08-20T18:37:21.848Z,101550.78
2022-08-20T18:39:51.254Z,101551.47
2022-08-20T18:42:34.479Z,101554.03
2022-08-20T18:45:01.931Z,101554.97
2022-08-20T18:47:34.611Z,101559.31
2022-08-20T18:50:16.554Z,101556.41
2022-08-20T18:52:52.609Z,101561.38
2022-08-20T18:55:32.265Z,101565.94
2022-08-20T18:58:39.116Z,101564.81
2022-08-20T19:01:12.803Z,101572.28
2022-08-20T19:03:55.232Z,101567.72
2022-08-20T19:06:29.283Z,101574.81
2022-08-20T19:09:24.076Z,101574.09
2022-08-20T19:12:19.449Z,101579.94
2022-08-20T19:15:16.697Z,101586.03
2022-08-20T19:18:16.316Z,101584.13
2022-08-20T19:21:02.545Z,101588.91
2022-08-20T19:23:38.142Z,101586.66
2022-08-20T19:26:25.417Z,101593.41
2022-08-20T19:29:17.168Z,101589.25
2022-08-20T19:31:44.621Z,101594.44
2022-08-20T19:34:24.180Z,101582.84
2022-08-20T19:37:34.889Z,101593.19
2022-08-20T19:40:08.778Z,101590.72
2022-08-20T19:42:43.127Z,101594.81
2022-08-20T19:45:22.827Z,101592.31
2022-08-20T19:48:13.072Z,101604.16
2022-08-20T19:50:55.637Z,101600.09
2022-08-20T19:53:34.048Z,101605.44
2022-08-20T19:56:02.504Z,101610.19
2022-08-20T19:58:31.998Z,101606.72
2022-08-20T20:01:02.209Z,101608.03
2022-08-20T20:03:40.555Z,101607.28
2022-08-20T20:06:16.978Z,101615.28
2022-08-20T20:09:17.089Z,101606.06
2022-08-20T20:12:04.068Z,101605.47
2022-08-20T20:14:35.725Z,101608.97
2022-08-20T20:17:07.144Z,101610.63
2022-08-20T20:19:59.119Z,101613.28
2022-08-20T20:22:32.390Z,101615.34
2022-08-20T20:25:06.948Z,101612.66
2022-08-20T20:27:36.565Z,101606.69
2022-08-20T20:30:13.716Z,101607.31
2022-08-20T20:32:44.786Z,101617.19
2022-08-20T20:35:27.120Z,101595.78
2022-08-20T20:38:08.692Z,101609.28
2022-08-20T20:40:53.930Z,101606.47
2022-08-20T20:43:35.791Z,101605.66
2022-08-20T20:46:24.584Z,101598.53
2022-08-20T20:49:08.544Z,101606.09
2022-08-20T20:51:42.398Z,101611.41
2022-08-20T20:54:27.891Z,101596.72
2022-08-20T20:57:10.052Z,101604.63
2022-08-20T20:59:38.160Z,101616.25
2022-08-20T21:02:05.221Z,101601.94
2022-08-20T21:04:32.888Z,101602.31
2022-08-20T21:07:07.327Z,101600.63
2022-08-20T21:09:36.587Z,101586.69
2022-08-20T21:12:04.878Z,101582.34
2022-08-20T21:14:31.805Z,101586.44
2022-08-20T21:17:02.762Z,101587.69
2022-08-20T21:19:30.501Z,101579.91
2022-08-20T21:21:57.654Z,101588.97
2022-08-20T21:24:24.661Z,101589.63
2022-08-20T21:26:52.560Z,101591.91
2022-08-20T21:29:32.322Z,101583.13
2022-08-20T21:32:00.152Z,101591.13
2022-08-20T21:34:27.404Z,101601.56
2022-08-20T21:36:54.563Z,101590.28
2022-08-20T21:39:23.249Z,101605.69
2022-08-20T21:41:51.575Z,101596.59
2022-08-20T21:44:26.238Z,101590.09
2022-08-20T21:46:54.976Z,101591.94
2022-08-20T21:49:24.654Z,101598.88
2022-08-20T21:51:52.562Z,101590.69
2022-08-20T21:54:19.909Z,101600.34
2022-08-20T21:56:53.067Z,101596.06
2022-08-20T21:59:22.742Z,101592.56
2022-08-20T22:01:50.529Z,101584.19
2022-08-20T22:04:17.847Z,101608.97
2022-08-20T22:06:45.540Z,101608.28
2022-08-20T22:09:13.196Z,101602.94
2022-08-20T22:11:40.191Z,101601.53
2022-08-20T22:14:09.383Z,101599.75
2022-08-20T22:16:36.333Z,101604.88
2022-08-20T22:19:03.698Z,101598.84
2022-08-20T22:21:34.055Z,101590.50
2022-08-20T22:24:06.499Z,101588.47
2022-08-20T22:26:35.465Z,101586.75
2022-08-20T22:29:04.429Z,101593.78
2022-08-20T22:31:35.833Z,101580.41
2022-08-20T22:34:03.863Z,101587.34
2022-08-20T22:36:32.776Z,101578.59
2022-08-20T22:39:00.048Z,101576.16
2022-08-20T22:41:27.119Z,101581.25
2022-08-20T22:43:56.575Z,101577.09
2022-08-20T22:46:27.141Z,101582.03
2022-08-20T22:48:55.336Z,101580.66
2022-08-20T22:51:30.230Z,101581.88
2022-08-20T22:53:58.372Z,101591.31
2022-08-20T22:56:26.107Z,101590.72
2022-08-20T22:58:53.187Z,101589.91
2022-08-20T23:01:20.779Z,101590.50
2022-08-20T23:03:47.735Z,101585.06
2022-08-20T23:06:14.703Z,101586.09
2022-08-20T23:08:42.225Z,101585.44
2022-08-20T23:11:09.748Z,101583.59
2022-08-20T23:13:36.766Z,101583.25
2022-08-20T23:16:05.572Z,101574.81
2022-08-20T23:18:32.563Z,101579.94
2022-08-20T23:20:59.938Z,101587.16
2022-08-20T23:23:27.683Z,101585.78
2022-08-20T23:25:55.546Z,101580.38
2022-08-20T23:28:25.785Z,101585.88
2022-08-20T23:30:52.975Z,101569.31
2022-08-20T23:33:21.842Z,101580.47
2022-08-20T23:35:49.511Z,101577.09
2022-08-20T23:38:16.724Z,101578.59
2022-08-20T23:40:43.830Z,101570.91
2022-08-20T23:43:14.424Z,101569.31
2022-08-20T23:45:42.207Z,101564.00
2022-08-20T23:48:09.337Z,101559.84
2022-08-20T23:50:37.408Z,101553.28
2022-08-20T23:53:05.262Z,101551.41
2022-08-20T23:55:33.146Z,101540.75
2022-08-20T23:58:00.339Z,101532.72
